createdAt,value
2022-12-28T00:00:03.557Z,0.001
2022-12-28T00:05:03.296Z,0.002
2022-12-28T00:10:03.308Z,0.001
2022-12-28T00:15:03.483Z,0.001
2022-12-28T00:20:03.502Z,0.003
2022-12-28T00:25:03.550Z,0
2022-12-28T00:30:03.440Z,0.138
2022-12-28T00:35:03.417Z,0.07100000000000001
2022-12-28T00:40:03.334Z,0.014
2022-12-28T00:45:03.488Z,0.014
2022-12-28T00:50:03.438Z,0.16
2022-12-28T00:55:03.425Z,0.049
2022-12-28T01:00:03.360Z,0
2022-12-28T01:05:03.338Z,0
2022-12-28T01:10:03.630Z,0
2022-12-28T01:15:03.348Z,0
2022-12-28T01:20:03.436Z,0
2022-12-28T01:25:03.413Z,0
2022-12-28T01:30:03.392Z,0
2022-12-28T01:35:03.357Z,0
2022-12-28T01:40:03.373Z,0
2022-12-28T01:45:03.408Z,0
2022-12-28T01:50:03.450Z,0
2022-12-28T01:55:03.395Z,0
2022-12-28T02:00:03.393Z,0
2022-12-28T02:05:03.684Z,0
2022-12-28T02:10:41.905Z,0.001
2022-12-28T02:15:03.563Z,0.003
2022-12-28T02:20:03.549Z,0
2022-12-28T02:25:11.910Z,0
2022-12-28T02:30:03.540Z,0
2022-12-28T02:35:03.486Z,0
2022-12-28T02:40:03.432Z,0
2022-12-28T02:45:03.426Z,0
2022-12-28T02:50:03.493Z,0
2022-12-28T02:55:03.461Z,0
2022-12-28T03:00:03.445Z,0
2022-12-28T03:05:03.381Z,0
2022-12-28T03:10:03.459Z,0
2022-12-28T03:15:03.440Z,0
2022-12-28T03:20:03.448Z,0
2022-12-28T03:25:03.479Z,0
2022-12-28T03:30:03.549Z,0.001
2022-12-28T03:35:03.501Z,0.04
2022-12-28T03:40:03.462Z,0.056
2022-12-28T03:45:03.500Z,0.007
2022-12-28T03:50:03.585Z,0.062
2022-12-28T03:55:03.548Z,0.08
2022-12-28T04:00:03.485Z,0.073
2022-12-28T04:05:03.613Z,0.076
2022-12-28T04:10:03.488Z,0.091
2022-12-28T04:15:03.479Z,0.125
2022-12-28T04:20:03.742Z,0.137
2022-12-28T04:25:03.653Z,0.126
2022-12-28T04:30:03.636Z,0.009000000000000001
2022-12-28T04:35:03.682Z,0
2022-12-28T04:40:03.655Z,0.07200000000000001
2022-12-28T04:45:03.599Z,0.089
2022-12-28T04:50:03.540Z,0.088
2022-12-28T04:55:03.635Z,0.099
2022-12-28T05:00:03.563Z,0.008
2022-12-28T05:05:03.573Z,0
2022-12-28T05:10:03.582Z,0.001
2022-12-28T05:15:03.541Z,0.003
2022-12-28T05:20:03.651Z,0.006
2022-12-28T05:25:03.565Z,0.062
2022-12-28T05:30:03.577Z,0.035
2022-12-28T05:35:03.603Z,0
2022-12-28T05:40:03.613Z,0.073
2022-12-28T05:45:03.690Z,0.137
2022-12-28T05:50:03.624Z,0.136
2022-12-28T05:55:03.624Z,0.138
2022-12-28T06:00:03.739Z,0.08600000000000001
2022-12-28T06:05:03.751Z,0.077
2022-12-28T06:10:03.745Z,0.076
2022-12-28T06:15:03.918Z,0.073
2022-12-28T06:20:03.747Z,0.076
2022-12-28T06:25:03.668Z,0.088
2022-12-28T06:30:03.605Z,0.028
2022-12-28T06:35:03.644Z,0.015
2022-12-28T06:40:03.623Z,0
2022-12-28T06:45:03.649Z,0.041
2022-12-28T06:50:03.696Z,0.097
2022-12-28T06:55:03.624Z,0.09
2022-12-28T07:00:03.623Z,0.089
2022-12-28T07:05:03.649Z,0.089
2022-12-28T07:10:03.594Z,0.096
2022-12-28T07:15:01.286Z,0.124
2022-12-28T07:20:01.463Z,0.126
2022-12-28T07:25:01.345Z,0.033
2022-12-28T07:30:01.250Z,0.039
2022-12-28T07:35:01.269Z,0.084
2022-12-28T07:40:01.387Z,0.047
2022-12-28T07:45:01.235Z,0
2022-12-28T07:50:01.300Z,0.002
2022-12-28T07:55:01.300Z,0
2022-12-28T08:00:01.345Z,0
2022-12-28T08:05:01.261Z,0.10400000000000001
2022-12-28T08:10:01.379Z,0.139
2022-12-28T08:15:01.573Z,0.11
2022-12-28T08:20:01.370Z,0.032
2022-12-28T08:25:01.356Z,0.025
2022-12-28T08:30:01.345Z,0.082
2022-12-28T08:35:01.292Z,0.091
2022-12-28T08:40:01.349Z,0.111
2022-12-28T08:45:01.295Z,0.138
2022-12-28T08:50:01.419Z,0.17200000000000001
2022-12-28T08:55:01.308Z,21.915
2022-12-28T09:00:01.297Z,24.754
2022-12-28T09:05:01.299Z,4.805
2022-12-28T09:10:01.365Z,0
2022-12-28T09:15:01.286Z,0
2022-12-28T09:20:01.363Z,2.5020000000000002
2022-12-28T09:25:01.488Z,33.053
2022-12-28T09:30:01.566Z,28.7
2022-12-28T09:35:01.486Z,29.496000000000002
2022-12-28T09:40:01.867Z,28.801000000000002
2022-12-28T09:45:01.385Z,35.101
2022-12-28T09:50:01.392Z,43.596000000000004
2022-12-28T09:55:01.459Z,40.107
2022-12-28T10:00:01.310Z,40.537
2022-12-28T10:05:01.388Z,51.521
2022-12-28T10:10:01.385Z,90.57300000000001
2022-12-28T10:15:01.370Z,50.714
2022-12-28T10:20:01.400Z,87.382
2022-12-28T10:25:01.396Z,114.97500000000001
2022-12-28T10:30:01.388Z,100.159
2022-12-28T10:35:01.351Z,81.239
2022-12-28T10:40:01.403Z,93.991
2022-12-28T10:45:01.367Z,125.309
2022-12-28T10:50:37.388Z,142.784
2022-12-28T10:55:07.781Z,147.654
2022-12-28T11:00:01.423Z,68.878
2022-12-28T11:05:01.596Z,50.073
2022-12-28T11:10:01.606Z,46.981
2022-12-28T11:15:01.589Z,55.032000000000004
2022-12-28T11:20:01.532Z,93.141
2022-12-28T11:25:01.432Z,126.266
2022-12-28T11:30:01.427Z,92.834
2022-12-28T11:35:01.476Z,89.51
2022-12-28T11:40:01.519Z,135.42000000000002
2022-12-28T11:45:01.448Z,154.023
2022-12-28T11:50:01.481Z,281.505
2022-12-28T11:55:01.497Z,321.993
2022-12-28T12:00:01.528Z,237.87900000000002
2022-12-28T12:05:01.446Z,209.68
2022-12-28T12:10:01.454Z,125.97
2022-12-28T12:15:01.467Z,192.255
2022-12-28T12:20:01.517Z,210.04500000000002
2022-12-28T12:25:01.500Z,232.053
2022-12-28T12:30:01.504Z,263.757
2022-12-28T12:35:01.563Z,148.054
2022-12-28T12:40:01.709Z,162.06300000000002
2022-12-28T12:45:01.653Z,110.038
2022-12-28T12:50:01.807Z,74.65
2022-12-28T12:55:01.623Z,73.06
2022-12-28T13:00:01.574Z,49.841
2022-12-28T13:05:01.721Z,37.465
2022-12-28T13:20:01.694Z,24.517
2022-12-28T13:25:01.537Z,34.023
2022-12-28T13:30:01.527Z,15.819
2022-12-28T13:35:01.552Z,27.501
2022-12-28T13:40:01.538Z,11.929
2022-12-28T13:45:02.593Z,0.047
2022-12-28T13:50:01.613Z,0.057
2022-12-28T13:55:01.565Z,0.058
2022-12-28T14:00:01.538Z,16.583000000000002
2022-12-28T14:05:01.696Z,32.886
2022-12-28T14:10:01.580Z,27.805
2022-12-28T14:15:01.719Z,29.148
2022-12-28T14:20:01.831Z,12.134
2022-12-28T14:25:01.706Z,0.10200000000000001
2022-12-28T14:30:01.745Z,0.078
2022-12-28T14:35:01.664Z,0.059000000000000004
2022-12-28T14:40:01.578Z,0.059000000000000004
2022-12-28T14:45:01.636Z,0.055
2022-12-28T14:50:01.623Z,0.052000000000000005
2022-12-28T14:55:01.788Z,0.069
2022-12-28T15:00:01.599Z,0.043000000000000003
2022-12-28T15:05:01.610Z,0.061
2022-12-28T15:10:01.671Z,0.074
2022-12-28T15:15:01.633Z,0.001
2022-12-28T15:20:01.736Z,0.004
2022-12-28T15:25:01.760Z,0.058
2022-12-28T15:30:06.233Z,0.02
2022-12-28T15:35:01.627Z,0.019
2022-12-28T15:40:01.626Z,0.21
2022-12-28T15:45:01.813Z,0.436
2022-12-28T15:50:01.920Z,0.321
2022-12-28T15:55:01.854Z,0.354
2022-12-28T16:00:01.859Z,0.17200000000000001
2022-12-28T16:05:01.707Z,0.014
2022-12-28T16:10:01.883Z,0.012
2022-12-28T16:15:01.663Z,0.062
2022-12-28T16:20:01.772Z,0
2022-12-28T16:25:01.675Z,0
2022-12-28T16:30:01.701Z,0
2022-12-28T16:35:01.680Z,0.047
2022-12-28T16:40:01.809Z,0.10400000000000001
2022-12-28T16:45:01.693Z,0.124
2022-12-28T16:50:01.798Z,0.121
2022-12-28T16:55:01.757Z,0.094
2022-12-28T17:00:01.714Z,0.073
2022-12-28T17:05:01.725Z,0.003
2022-12-28T17:10:01.708Z,0.03
2022-12-28T17:15:04.946Z,0.057
2022-12-28T17:20:01.995Z,0.057
2022-12-28T17:25:01.851Z,0.049
2022-12-28T17:30:01.821Z,0.084
2022-12-28T17:35:01.782Z,0.08600000000000001
2022-12-28T17:40:01.716Z,0.068
2022-12-28T17:45:06.144Z,0.037
2022-12-28T17:50:01.795Z,0.04
2022-12-28T17:55:02.610Z,0.016
2022-12-28T18:00:01.796Z,0.034
2022-12-28T18:05:01.789Z,0.046
2022-12-28T18:10:01.814Z,0.029
2022-12-28T18:15:01.842Z,0.056
2022-12-28T18:20:01.838Z,0.07200000000000001
2022-12-28T18:25:01.815Z,0.07200000000000001
2022-12-28T18:30:01.869Z,0.032
2022-12-28T18:35:02.026Z,0.033
2022-12-28T18:40:01.932Z,0.038
2022-12-28T18:45:01.980Z,0.036000000000000004
2022-12-28T18:50:01.988Z,0.04
2022-12-28T18:55:02.013Z,0.054
2022-12-28T19:00:01.944Z,0.069
2022-12-28T19:05:01.785Z,0
2022-12-28T19:10:05.061Z,0.067
2022-12-28T19:15:01.846Z,0.085
2022-12-28T19:20:01.859Z,0.047
2022-12-28T19:25:02.045Z,0.038
2022-12-28T19:30:01.822Z,0.041
2022-12-28T19:35:01.858Z,0.07
2022-12-28T19:40:01.813Z,0.084
2022-12-28T19:45:06.601Z,0.092
2022-12-28T19:50:01.909Z,0
2022-12-28T19:55:02.146Z,0
2022-12-28T20:00:02.341Z,0.007
2022-12-28T20:05:02.016Z,0.027
2022-12-28T20:10:02.011Z,0.011
2022-12-28T20:15:02.007Z,0.097
2022-12-28T20:20:01.969Z,0.098
2022-12-28T20:25:02.069Z,0.098
2022-12-28T20:30:01.912Z,0.09
2022-12-28T20:35:01.889Z,0.11800000000000001
2022-12-28T20:40:01.873Z,0.136
2022-12-28T20:45:01.889Z,0.136
2022-12-28T20:50:01.918Z,0.109
2022-12-28T20:55:01.971Z,0.1
2022-12-28T21:00:01.968Z,0.07200000000000001
2022-12-28T21:05:01.924Z,0
2022-12-28T21:10:02.143Z,0.084
2022-12-28T21:15:02.080Z,0.10200000000000001
2022-12-28T21:20:02.114Z,0.12
2022-12-28T21:25:01.977Z,0.155
2022-12-28T21:30:01.926Z,0.153
2022-12-28T21:35:01.974Z,0.125
2022-12-28T21:40:01.999Z,0.088
2022-12-28T21:45:01.945Z,0.08700000000000001
2022-12-28T21:50:02.112Z,0.09
2022-12-28T21:55:02.072Z,0.09
2022-12-28T22:00:02.212Z,0.045
2022-12-28T22:05:02.839Z,0.005
2022-12-28T22:10:02.006Z,0.152
2022-12-28T22:15:01.982Z,0.073
2022-12-28T22:20:02.102Z,0
2022-12-28T22:25:02.201Z,0.001
2022-12-28T22:30:02.244Z,0.001
2022-12-28T22:35:02.131Z,0.042
2022-12-28T22:40:02.125Z,0.105
2022-12-28T22:45:02.041Z,0.091
2022-12-28T22:50:02.116Z,0.09
2022-12-28T22:55:02.076Z,0.117
2022-12-28T23:00:02.146Z,0.059000000000000004
2022-12-28T23:05:02.159Z,0.01
2022-12-28T23:10:02.013Z,0.115
2022-12-28T23:15:02.037Z,0.088
2022-12-28T23:20:02.047Z,0.101
2022-12-28T23:25:02.142Z,0.08600000000000001
2022-12-28T23:30:02.082Z,0.096
2022-12-28T23:35:02.077Z,0.088
2022-12-28T23:40:02.154Z,0.08600000000000001
2022-12-28T23:45:02.256Z,0.131
2022-12-28T23:50:02.283Z,0.131
2022-12-28T23:55:02.268Z,0.123
